Alire, New Mexico
Current Conditions -  °F | °C
As of 8:35 PM on Sunday 23 Nov 2014 (Local Time) from KLAM Reporting Station
Clear Clear  
Wind Chill: 18°   Ceiling: Unl
Heat Index: 31°   Visibility: 10mi
Dew Point:   Wind: 23mph
Humidity: 32%   Direction: 300°WNW
Pressure: 29.96"   Gusts: 32mph
Location:  36.4765°N, 106.58°W
Report Text: KLAM 240335Z AUTO 30020G28KT 10SM CLR 00/M15 A2996 RMK AO2 T10051155
Loading
Personal Weather Stations






























Interactive Weather Map New forecast layout! Learn more

10-Day Weather Forecast

Advertisements
Track Severe Weather on mobile